Time;durP1;ratioP1;P1;durP2;ratioP2;P2;SDS_P1;SDS_P2;PMS_P1;PMS_P2;Temp;Humidity;BMP_temperature;BMP_pressure;BME280_temperature;BME280_humidity;BME280_pressure;Samples;Min_cycle;Max_cycle;Signal;HPM_P1;HPM_P2
2021/08/19 10:07:20;;;;;;;22.83;15.38;;;;;;;;;;5090939;27;21078;-69
2021/08/19 10:09:45;;;;;;;23.05;15.35;;;;;;;;;;5091020;28;20198;-69
2021/08/19 10:12:12;;;;;;;21.67;14.85;;;;;;;;;;5090820;28;20181;-69
2021/08/19 10:14:38;;;;;;;19.27;13.30;;;;;;;;;;5090904;28;20641;-69
2021/08/19 10:17:09;;;;;;;20.13;13.52;;;;;;;;;;5090788;28;20251;-69
2021/08/19 10:19:36;;;;;;;19.73;11.88;;;;;;;;;;5090793;28;20739;-70
2021/08/19 10:22:19;;;;;;;14.02;11.70;;;;;;;;;;5089406;28;20182;-70
2021/08/19 10:24:56;;;;;;;20.05;13.65;;;;;;;;;;5090617;28;20218;-70
2021/08/19 10:27:26;;;;;;;12.52;11.23;;;;;;;;;;5090572;28;20207;-70
2021/08/19 10:29:54;;;;;;;17.85;11.13;;;;;;;;;;5090541;28;20172;-70
2021/08/19 10:32:27;;;;;;;16.73;11.25;;;;;;;;;;5090469;28;20259;-70
2021/08/19 10:34:55;;;;;;;10.38;9.27;;;;;;;;;;5090432;28;20663;-70
2021/08/19 10:37:21;;;;;;;8.90;8.02;;;;;;;;;;5089101;28;20206;-70
2021/08/19 10:39:47;;;;;;;9.10;8.38;;;;;;;;;;5090364;28;20164;-70
2021/08/19 10:42:28;;;;;;;8.27;7.43;;;;;;;;;;5090272;28;20564;-70
2021/08/19 10:44:54;;;;;;;8.02;7.07;;;;;;;;;;5090330;28;20251;-70
2021/08/19 10:47:34;;;;;;;7.28;6.63;;;;;;;;;;5090268;28;20233;-70
2021/08/19 10:50:20;;;;;;;12.10;7.47;;;;;;;;;;5090161;28;20651;-70
2021/08/19 10:52:47;;;;;;;7.78;7.00;;;;;;;;;;5088852;28;20557;-70
2021/08/19 10:55:14;;;;;;;7.95;6.15;;;;;;;;;;5090073;28;20571;-70
2021/08/19 10:58:09;;;;;;;7.80;7.00;;;;;;;;;;5090043;28;20250;-69
2021/08/19 11:00:36;;;;;;;7.45;6.75;;;;;;;;;;5089243;28;20192;-70
2021/08/19 11:03:03;;;;;;;6.75;6.18;;;;;;;;;;5089880;28;20209;-70
2021/08/19 11:05:29;;;;;;;7.15;6.45;;;;;;;;;;5089630;28;20223;-70
2021/08/19 11:08:01;;;;;;;7.70;6.95;;;;;;;;;;5090266;28;20526;-70
2021/08/19 11:10:29;;;;;;;10.18;7.22;;;;;;;;;;5088507;28;20178;-70
2021/08/19 11:13:06;;;;;;;6.75;6.25;;;;;;;;;;5089755;28;20168;-70
2021/08/19 11:15:32;;;;;;;7.55;6.05;;;;;;;;;;5089669;28;20182;-70
2021/08/19 11:17:59;;;;;;;10.43;7.32;;;;;;;;;;5080047;28;20498;-70
2021/08/19 11:20:26;;;;;;;8.00;6.07;;;;;;;;;;5076060;28;20179;-70
2021/08/19 11:23:07;;;;;;;6.75;6.25;;;;;;;;;;5075973;28;20179;-70
2021/08/19 11:25:34;;;;;;;7.07;5.57;;;;;;;;;;5074610;28;20199;-70
2021/08/19 11:28:20;;;;;;;7.57;6.25;;;;;;;;;;5074683;28;20199;-70
2021/08/19 11:30:51;;;;;;;6.65;6.05;;;;;;;;;;5076238;28;20184;-70
2021/08/19 11:33:21;;;;;;;7.57;6.50;;;;;;;;;;5074583;28;20556;-70
2021/08/19 11:35:49;;;;;;;7.78;7.18;;;;;;;;;;5076628;28;20178;-70
2021/08/19 11:38:16;;;;;;;7.82;7.03;;;;;;;;;;5075796;28;20199;-70
2021/08/19 11:40:44;;;;;;;6.45;5.88;;;;;;;;;;5075759;28;20172;-70
2021/08/19 11:43:22;;;;;;;6.30;5.70;;;;;;;;;;5075759;28;20169;-70
2021/08/19 11:45:48;;;;;;;10.63;5.70;;;;;;;;;;5075513;28;20212;-69
2021/08/19 11:48:17;;;;;;;6.57;6.07;;;;;;;;;;5074301;28;20622;-70
2021/08/19 11:50:43;;;;;;;9.50;6.72;;;;;;;;;;5074339;28;20161;-70
2021/08/19 11:53:09;;;;;;;8.38;6.30;;;;;;;;;;5075529;28;20168;-70
2021/08/19 11:55:37;;;;;;;6.90;6.10;;;;;;;;;;5075432;28;20267;-70
2021/08/19 11:58:16;;;;;;;7.72;6.80;;;;;;;;;;5074119;28;20218;-70
2021/08/19 12:00:56;;;;;;;8.15;6.45;;;;;;;;;;5075317;28;20168;-70
2021/08/19 12:03:21;;;;;;;6.78;6.28;;;;;;;;;;5075295;28;20164;-70
2021/08/19 12:05:57;;;;;;;7.05;6.47;;;;;;;;;;5075066;28;20798;-70
2021/08/19 12:08:27;;;;;;;7.60;7.00;;;;;;;;;;5075232;28;20167;-69
2021/08/19 12:10:53;;;;;;;8.00;7.30;;;;;;;;;;5075073;28;20164;-70
2021/08/19 12:13:20;;;;;;;7.13;6.43;;;;;;;;;;5074054;28;20488;-70
2021/08/19 12:15:46;;;;;;;10.18;6.60;;;;;;;;;;5075098;28;20175;-70
2021/08/19 12:18:12;;;;;;;9.52;8.05;;;;;;;;;;5074974;28;20251;-70
2021/08/19 12:20:38;;;;;;;7.93;7.20;;;;;;;;;;5074955;28;20164;-70
2021/08/19 12:23:15;;;;;;;6.78;6.32;;;;;;;;;;5073686;28;20168;-70
2021/08/19 12:25:41;;;;;;;9.27;7.30;;;;;;;;;;5074795;28;20210;-70
2021/08/19 12:28:10;;;;;;;7.63;7.00;;;;;;;;;;5074574;28;20172;-70
2021/08/19 12:30:36;;;;;;;8.13;7.55;;;;;;;;;;5074110;28;20261;-70
2021/08/19 12:33:07;;;;;;;9.05;7.03;;;;;;;;;;5073484;28;20176;-70
2021/08/19 12:49:20;;;;;;;8.40;7.70;;;;;;;;;;5090943;27;20882;-69
2021/08/19 12:51:46;;;;;;;12.38;6.75;;;;;;;;;;5090919;28;20168;-69
2021/08/19 12:54:12;;;;;;;9.63;7.32;;;;;;;;;;5090816;28;20656;-69
2021/08/19 12:56:38;;;;;;;7.25;6.65;;;;;;;;;;5090810;28;20172;-70
2021/08/19 12:59:04;;;;;;;7.18;6.50;;;;;;;;;;5089532;28;20632;-70
2021/08/19 13:01:30;;;;;;;7.70;7.10;;;;;;;;;;5091076;28;20198;-70
2021/08/19 13:03:56;;;;;;;8.02;7.20;;;;;;;;;;5089400;28;20170;-70
2021/08/19 13:06:23;;;;;;;9.18;8.25;;;;;;;;;;5090639;28;20620;-70
2021/08/19 13:08:49;;;;;;;9.05;8.35;;;;;;;;;;5090461;28;20245;-70
2021/08/19 13:11:16;;;;;;;9.50;8.55;;;;;;;;;;5090462;28;20175;-70
2021/08/19 13:13:42;;;;;;;8.60;7.68;;;;;;;;;;5090483;28;20179;-70
2021/08/19 13:16:08;;;;;;;8.27;7.50;;;;;;;;;;5090419;28;20168;-70
2021/08/19 13:18:34;;;;;;;9.13;8.25;;;;;;;;;;5089126;28;20596;-70
2021/08/19 13:21:00;;;;;;;8.32;7.72;;;;;;;;;;5089145;28;20218;-70
2021/08/19 13:23:28;;;;;;;9.35;8.50;;;;;;;;;;5090337;28;20175;-70
2021/08/19 13:25:55;;;;;;;9.00;8.15;;;;;;;;;;5090204;28;20174;-70
2021/08/19 13:38:57;;;;;;;10.63;8.45;;;;;;;;;;5070792;28;21231;-69
2021/08/19 13:41:23;;;;;;;12.60;8.13;;;;;;;;;;5070739;28;20227;-70
2021/08/19 13:43:49;;;;;;;8.82;7.88;;;;;;;;;;5070700;28;20199;-70
2021/08/19 13:46:15;;;;;;;8.20;7.45;;;;;;;;;;5070661;28;20169;-70
2021/08/19 13:48:41;;;;;;;7.57;6.97;;;;;;;;;;5070616;28;20173;-70
2021/08/19 13:51:07;;;;;;;11.43;7.75;;;;;;;;;;5069177;28;20168;-70
2021/08/19 13:53:32;;;;;;;8.60;7.80;;;;;;;;;;5070602;28;20172;-70
2021/08/19 13:55:58;;;;;;;7.65;6.95;;;;;;;;;;5070443;28;20168;-70
2021/08/19 13:58:26;;;;;;;7.72;7.13;;;;;;;;;;5070250;28;20574;-70
2021/08/19 14:00:53;;;;;;;7.95;6.65;;;;;;;;;;5070365;28;20519;-70
2021/08/19 14:03:19;;;;;;;7.15;6.57;;;;;;;;;;5070195;28;20160;-70
2021/08/19 14:05:45;;;;;;;8.95;7.40;;;;;;;;;;5070211;28;20179;-70
2021/08/19 14:08:11;;;;;;;7.80;7.13;;;;;;;;;;5070223;28;20169;-70
2021/08/19 14:10:38;;;;;;;8.27;7.28;;;;;;;;;;5070154;28;20169;-70
2021/08/19 14:13:04;;;;;;;6.88;6.15;;;;;;;;;;5068800;28;20172;-70
2021/08/19 14:15:30;;;;;;;6.93;6.43;;;;;;;;;;5070027;28;20644;-70
2021/08/19 14:17:56;;;;;;;7.45;5.97;;;;;;;;;;5069912;28;20188;-70
2021/08/19 14:20:22;;;;;;;6.28;5.60;;;;;;;;;;5070005;28;20204;-70
2021/08/19 14:22:49;;;;;;;5.90;5.38;;;;;;;;;;5069826;28;20192;-70
2021/08/19 14:25:15;;;;;;;5.03;4.68;;;;;;;;;;5069775;28;20621;-70
2021/08/19 14:27:42;;;;;;;5.90;4.25;;;;;;;;;;5069789;28;20172;-70
2021/08/19 14:30:08;;;;;;;4.00;3.63;;;;;;;;;;5069705;28;20160;-70
2021/08/19 14:32:34;;;;;;;3.85;3.55;;;;;;;;;;5069592;28;20238;-70
2021/08/19 14:35:00;;;;;;;9.02;3.40;;;;;;;;;;5069628;28;20247;-70
2021/08/19 14:37:26;;;;;;;3.03;2.83;;;;;;;;;;5069321;28;20302;-70
2021/08/19 14:39:52;;;;;;;2.95;2.75;;;;;;;;;;5069514;28;20565;-70
2021/08/19 14:42:18;;;;;;;3.20;2.90;;;;;;;;;;5069451;28;20214;-70
2021/08/19 14:44:44;;;;;;;3.97;2.95;;;;;;;;;;5069364;28;20164;-70
2021/08/19 14:47:10;;;;;;;3.95;2.70;;;;;;;;;;5069224;28;20259;-70
2021/08/19 14:49:36;;;;;;;2.75;2.55;;;;;;;;;;5060055;28;20226;-70
2021/08/19 14:52:02;;;;;;;2.75;2.50;;;;;;;;;;5056079;28;20177;-70
2021/08/19 14:54:28;;;;;;;5.20;2.53;;;;;;;;;;5056010;28;20254;-70
2021/08/19 14:56:54;;;;;;;2.85;2.65;;;;;;;;;;5054620;28;20250;-70
2021/08/19 14:59:20;;;;;;;2.40;2.15;;;;;;;;;;5055925;28;20180;-70
2021/08/19 15:01:46;;;;;;;3.47;1.80;;;;;;;;;;5055787;28;20168;-70
2021/08/19 15:04:12;;;;;;;1.90;1.80;;;;;;;;;;5054536;28;20176;-70
2021/08/19 15:06:39;;;;;;;1.67;1.58;;;;;;;;;;5055794;28;20163;-70
2021/08/19 15:09:05;;;;;;;1.60;1.50;;;18.80;99.90;;;;;;5055836;28;20626;-70
2021/08/19 15:11:37;;;;;;;1.65;1.55;;;19.50;99.90;;;;;;5055864;28;20169;-70
2021/08/19 15:14:09;;;;;;;1.95;1.58;;;19.40;99.90;;;;;;5055676;28;20156;-70
2021/08/19 15:16:39;;;;;;;2.17;1.90;;;19.30;99.90;;;;;;5054255;28;20184;-70
2021/08/19 15:19:07;;;;;;;3.30;2.38;;;19.50;99.90;;;;;;5055628;28;20169;-70
2021/08/19 15:21:34;;;;;;;4.15;1.50;;;19.00;99.90;;;;;;5055565;28;20164;-70
2021/08/19 15:24:00;;;;;;;2.42;1.65;;;18.90;99.90;;;;;;5055539;28;20557;-70
2021/08/19 15:26:26;;;;;;;1.98;1.63;;;18.90;99.90;;;;;;5055417;28;20247;-70
2021/08/19 15:29:04;;;;;;;3.92;2.60;;;19.00;99.90;;;;;;5054024;28;20176;-70
2021/08/19 15:31:31;;;;;;;1.70;1.60;;;19.40;99.90;;;;;;5055321;28;20234;-70
2021/08/19 15:33:57;;;;;;;3.40;1.30;;;19.50;99.90;;;;;;5055221;28;20191;-70
2021/08/19 15:36:22;;;;;;;1.65;1.65;;;19.80;99.90;;;;;;5053955;28;20634;-70
2021/08/19 15:38:48;;;;;;;2.17;1.48;;;20.00;99.90;;;;;;5055000;28;20231;-70
2021/08/19 15:41:15;;;;;;;2.15;1.30;;;19.80;99.90;;;;;;5054936;28;20251;-70
2021/08/19 15:43:43;;;;;;;3.28;1.42;;;20.20;99.90;;;;;;5053917;28;20250;-70
2021/08/19 15:46:09;;;;;;;1.40;1.30;;;20.30;99.90;;;;;;5055095;28;20307;-70
2021/08/19 15:48:39;;;;;;;1.60;1.50;;;20.30;99.90;;;;;;5053826;28;20164;-70
2021/08/19 15:51:06;;;;;;;1.70;1.60;;;20.00;99.90;;;;;;5055011;28;20165;-70
2021/08/19 15:53:33;;;;;;;1.52;1.42;;;19.90;99.90;;;;;;5054924;28;20559;-70
2021/08/19 15:56:03;;;;;;;2.50;2.40;;;19.90;99.90;;;;;;5054855;28;20195;-70
2021/08/19 15:58:34;;;;;;;3.33;2.00;;;19.80;99.90;;;;;;5054792;28;20554;-70
2021/08/19 16:01:01;;;;;;;2.20;2.10;;;19.80;99.90;;;;;;5053826;28;20179;-70
2021/08/19 16:03:27;;;;;;;3.30;2.00;;;19.90;99.90;;;;;;5054861;28;20526;-70
2021/08/19 16:05:52;;;;;;;1.90;1.80;;;19.90;99.90;;;;;;5054658;28;20170;-70
2021/08/19 16:08:18;;;;;;;2.15;1.58;;;20.10;99.90;;;;;;5054556;28;20218;-70
2021/08/19 16:10:44;;;;;;;2.63;1.85;;;20.00;99.90;;;;;;5054554;28;20187;-70
2021/08/19 16:13:10;;;;;;;2.60;1.70;;;20.00;99.90;;;;;;5053293;28;20184;-70
2021/08/19 16:15:39;;;;;;;2.00;1.90;;;19.80;99.90;;;;;;5054512;28;20172;-70
2021/08/19 16:18:06;;;;;;;2.20;1.95;;;19.80;99.90;;;;;;5054389;28;20625;-70
2021/08/19 16:20:33;;;;;;;2.10;2.00;;;19.40;99.90;;;;;;5054316;28;20160;-70
2021/08/19 16:22:58;;;;;;;2.17;1.90;;;19.20;99.90;;;;;;5054045;28;20199;-70
2021/08/19 16:25:24;;;;;;;2.45;2.03;;;19.10;99.90;;;;;;5054202;28;20611;-70
2021/08/19 16:27:50;;;;;;;2.30;2.20;;;19.00;99.90;;;;;;5054223;28;20259;-70
2021/08/19 16:30:16;;;;;;;2.35;1.88;;;19.10;99.90;;;;;;5054048;28;20248;-70
2021/08/19 16:32:42;;;;;;;3.60;2.22;;;19.00;99.90;;;;;;5054067;28;20193;-70
2021/08/19 16:35:08;;;;;;;2.58;2.00;;;18.90;99.90;;;;;;5054147;28;20168;-70
2021/08/19 16:37:34;;;;;;;2.53;1.92;;;18.60;99.90;;;;;;5053793;28;20273;-70
2021/08/19 16:40:00;;;;;;;9.77;2.70;;;18.70;99.90;;;;;;5053959;28;20196;-70
2021/08/19 16:42:25;;;;;;;2.92;2.72;;;18.60;99.90;;;;;;5053887;28;20192;-70
2021/08/19 16:44:51;;;;;;;3.10;2.72;;;18.70;99.90;;;;;;5054052;28;20165;-70
2021/08/19 16:47:17;;;;;;;2.90;2.63;;;18.40;99.90;;;;;;5053864;28;20170;-70
2021/08/19 16:49:42;;;;;;;4.85;2.78;;;18.50;99.90;;;;;;5053805;28;20238;-70
2021/08/19 16:52:08;;;;;;;4.35;3.08;;;18.30;99.90;;;;;;5053697;28;20177;-70
2021/08/19 16:54:34;;;;;;;3.90;3.60;;;18.40;99.90;;;;;;5053572;28;20177;-70
2021/08/19 16:56:59;;;;;;;3.58;3.05;;;18.10;99.90;;;;;;5053630;28;20555;-70
2021/08/19 16:59:27;;;;;;;4.55;2.97;;;18.40;99.90;;;;;;5053628;28;20224;-70
2021/08/19 17:01:52;;;;;;;3.28;3.08;;;18.10;99.90;;;;;;5052380;28;20260;-70
2021/08/19 17:04:18;;;;;;;3.20;3.00;;;18.10;99.90;;;;;;5053627;28;20200;-70
2021/08/19 17:06:44;;;;;;;3.70;3.40;;;18.00;99.90;;;;;;5053528;28;20157;-70
2021/08/19 17:09:09;;;;;;;3.30;3.05;;;17.90;99.90;;;;;;5053578;28;20180;-70
2021/08/19 17:11:35;;;;;;;6.45;3.13;;;17.80;99.90;;;;;;5053246;28;20173;-70
2021/08/19 17:14:01;;;;;;;3.05;2.85;;;17.90;99.90;;;;;;5053285;28;20622;-70
2021/08/19 17:16:26;;;;;;;4.97;2.88;;;17.80;99.90;;;;;;5051837;28;20260;-70
2021/08/19 17:18:52;;;;;;;3.45;2.80;;;17.60;99.90;;;;;;5052814;28;20204;-70
2021/08/19 17:21:17;;;;;;;3.05;2.70;;;17.80;99.90;;;;;;5052965;28;20272;-70
2021/08/19 17:23:43;;;;;;;5.03;3.13;;;17.70;99.90;;;;;;5053129;28;20169;-70
2021/08/19 17:26:08;;;;;;;2.92;2.72;;;17.60;99.90;;;;;;5053181;28;20382;-70
2021/08/19 17:54:22;;;;;;;6.30;3.22;;;;;;;;;;5070249;28;20546;-70
2021/08/19 17:56:48;;;;;;;3.15;2.95;;;;;;;;;;5070248;28;20234;-70
2021/08/19 17:59:13;;;;;;;3.50;3.20;;;17.20;99.90;;;;;;5070641;28;20172;-70
2021/08/19 18:01:39;;;;;;;3.03;2.83;;;17.30;99.90;;;;;;5069362;28;20206;-70
